Time;durP1;ratioP1;P1;durP2;ratioP2;P2;SDS_P1;SDS_P2;PMS_P1;PMS_P2;Temp;Humidity;BMP_temperature;BMP_pressure;BME280_temperature;BME280_humidity;BME280_pressure;Samples;Min_cycle;Max_cycle;Signal;HPM_P1;HPM_P2
2022/04/02 00:01:07;;;;;;;5.33;4.33;;;;;;;4.99;nan;101159.50;5020642;28;20206;-73
2022/04/02 00:03:32;;;;;;;5.50;4.40;;;;;;;5.06;nan;101154.66;5020992;28;20431;-72
2022/04/02 00:05:58;;;;;;;5.47;4.60;;;;;;;5.19;nan;101155.09;5021174;28;20179;-73
2022/04/02 00:08:24;;;;;;;6.23;5.10;;;;;;;5.20;nan;101162.91;5021220;28;20195;-72
2022/04/02 00:10:50;;;;;;;6.90;5.10;;;;;;;5.17;nan;101151.59;5020683;28;20564;-72
2022/04/02 00:13:15;;;;;;;4.80;4.27;;;;;;;5.48;nan;101150.16;5021071;28;20421;-75
2022/04/02 00:15:41;;;;;;;5.20;4.70;;;;;;;5.03;nan;101154.53;5020823;28;20194;-73
2022/04/02 00:18:06;;;;;;;8.67;4.60;;;;;;;4.94;nan;101154.16;5019991;28;20179;-74
2022/04/02 00:20:32;;;;;;;6.37;5.63;;;;;;;4.91;nan;101154.03;5021025;28;20262;-76
2022/04/02 00:25:41;;;;;;;8.40;4.83;;;;;;;4.77;nan;101152.63;5020555;28;20448;-78
2022/04/02 00:28:06;;;;;;;4.73;4.33;;;;;;;4.29;nan;101154.16;5018922;28;20445;-78
2022/04/02 00:30:32;;;;;;;5.20;4.40;;;;;;;4.59;nan;101153.66;5020356;28;20188;-78
2022/04/02 00:32:58;;;;;;;5.43;4.60;;;;;;;4.94;nan;101150.69;5022980;28;20171;-75
2022/04/02 00:35:23;;;;;;;6.30;4.70;;;;;;;4.65;nan;101158.16;5020910;28;20171;-74
2022/04/02 00:37:49;;;;;;;6.60;4.50;;;;;;;4.42;nan;101160.69;5020602;28;20642;-77
2022/04/02 00:40:14;;;;;;;6.17;5.20;;;;;;;4.85;nan;101154.66;5020535;28;20179;-76
2022/04/02 00:42:39;;;;;;;5.10;4.47;;;;;;;4.84;nan;101157.19;5020125;28;20213;-76
2022/04/02 00:45:05;;;;;;;6.37;5.00;;;;;;;4.30;nan;101153.34;5018251;28;20175;-76
2022/04/02 00:47:30;;;;;;;4.30;3.90;;;;;;;4.52;nan;101159.38;5005409;28;20178;-76
2022/04/02 00:49:57;;;;;;;5.00;4.00;;;;;;;4.72;nan;101162.75;5020206;28;20183;-74
2022/04/02 00:52:24;;;;;;;4.73;4.20;;;;;;;4.43;nan;101161.59;5020207;28;20166;-75
2022/04/02 00:54:51;;;;;;;5.90;5.00;;;;;;;5.25;nan;101165.69;5019907;28;20444;-75
2022/04/02 00:57:17;;;;;;;4.93;4.33;;;;;;;4.65;nan;101171.06;5020024;28;20822;-77
2022/04/02 00:59:43;;;;;;;5.63;4.70;;;;;;;5.03;nan;101166.56;5032288;28;20421;-78
2022/04/02 01:02:08;;;;;;;4.90;4.27;;;;;;;4.44;nan;101171.97;5019785;28;20226;-78
2022/04/02 01:04:34;;;;;;;12.23;4.70;;;;;;;5.03;nan;101164.88;5019609;28;20834;-75
2022/04/02 01:07:00;;;;;;;5.93;4.30;;;;;;;4.85;nan;101164.13;5019948;28;20189;-76
2022/04/02 01:09:25;;;;;;;4.50;4.03;;;;;;;4.44;nan;101176.22;5019604;28;20190;-75
2022/04/02 01:11:52;;;;;;;5.10;4.27;;;;;;;4.19;nan;101173.53;5019522;28;20430;-74
2022/04/02 01:14:18;;;;;;;5.60;4.33;;;;;;;4.77;nan;101165.53;5019295;28;20488;-73
2022/04/02 01:16:43;;;;;;;5.53;4.23;;;;;;;4.58;nan;101169.06;5019568;28;20472;-74
2022/04/02 01:19:08;;;;;;;4.60;4.10;;;;;;;4.59;nan;101171.72;5019464;28;20179;-73
2022/04/02 01:21:34;;;;;;;4.93;4.43;;;;;;;4.86;nan;101174.53;5019775;28;20210;-75
2022/04/02 01:24:00;;;;;;;5.83;4.30;;;;;;;4.98;nan;101174.13;5019468;28;20586;-73
2022/04/02 01:26:26;;;;;;;5.00;4.50;;;;;;;4.35;nan;101176.75;5019299;28;20210;-73
2022/04/02 01:28:54;;;;;;;9.00;4.60;;;;;;;4.53;nan;101174.03;5019705;28;20418;-72
2022/04/02 01:31:23;;;;;;;5.43;4.93;;;;;;;4.80;nan;101176.84;5021523;28;20175;-71
2022/04/02 01:33:49;;;;;;;5.77;4.90;;;;;;;5.06;nan;101170.16;5018940;28;20469;-72
2022/04/02 01:36:15;;;;;;;4.70;4.27;;;;;;;4.38;nan;101176.84;5019537;28;20490;-70
2022/04/02 01:38:41;;;;;;;6.13;4.40;;;;;;;3.92;nan;101175.78;5018822;28;20434;-73
2022/04/02 01:41:06;;;;;;;4.90;4.17;;;;;;;4.58;nan;101179.41;5017412;28;20465;-74
2022/04/02 01:43:33;;;;;;;5.10;4.60;;;;;;;4.49;nan;101180.78;5019221;28;20190;-72
2022/04/02 01:45:58;;;;;;;6.17;4.93;;;;;;;4.57;nan;101182.81;5009889;28;20245;-77
2022/04/02 01:48:24;;;;;;;5.73;4.83;;;;;;;4.42;nan;101185.63;5012534;28;20831;-77
2022/04/02 01:50:50;;;;;;;4.83;4.37;;;;;;;4.76;nan;101180.13;5019549;28;20834;-76
2022/04/02 01:53:16;;;;;;;5.00;4.30;;;;;;;4.72;nan;101180.81;5018491;28;20195;-79
2022/04/02 01:55:41;;;;;;;5.03;4.53;;;;;;;3.80;nan;101185.56;5019283;28;20433;-78
2022/04/02 01:58:06;;;;;;;5.43;4.80;;;;;;;4.92;nan;101178.19;5019473;28;20434;-79
2022/04/02 02:00:32;;;;;;;5.77;4.73;;;;;;;5.49;nan;101176.06;5019073;28;20186;-78
2022/04/02 02:02:57;;;;;;;5.30;4.80;;;;;;;4.99;nan;101175.91;5018833;28;20201;-80
2022/04/02 02:05:22;;;;;;;5.20;4.70;;;;;;;4.71;nan;101174.78;5019774;28;20171;-79
2022/04/02 02:07:49;;;;;;;7.73;4.47;;;;;;;4.17;nan;101174.28;5020699;28;20202;-79
2022/04/02 02:10:15;;;;;;;6.10;4.67;;;;;;;4.06;nan;101178.97;5019735;28;20540;-78
2022/04/02 02:12:40;;;;;;;6.23;4.77;;;;;;;4.35;nan;101175.03;5019173;28;20483;-79
2022/04/02 02:15:06;;;;;;;5.20;4.70;;;;;;;4.26;nan;101179.81;5019125;28;20182;-78
2022/04/02 02:17:32;;;;;;;5.40;4.70;;;;;;;4.52;nan;101177.47;5018705;28;20269;-76
2022/04/02 02:19:57;;;;;;;4.60;4.20;;;;;;;4.17;nan;101179.44;5019353;28;20446;-79
2022/04/02 02:22:22;;;;;;;5.53;4.70;;;;;;;4.77;nan;101178.44;5019248;28;20206;-73
2022/04/02 02:24:48;;;;;;;4.80;4.40;;;;;;;4.75;nan;101182.66;5018481;28;20194;-73
2022/04/02 02:27:13;;;;;;;5.20;4.70;;;;;;;4.95;nan;101191.22;5018528;28;20170;-71
2022/04/02 02:29:39;;;;;;;6.10;4.60;;;;;;;4.16;nan;101190.56;5018401;28;20175;-72
2022/04/02 02:32:04;;;;;;;5.27;4.23;;;;;;;4.81;nan;101190.66;5020468;28;20245;-73
2022/04/02 02:37:13;;;;;;;5.57;4.97;;;;;;;4.41;nan;101191.59;5018098;28;20233;-75
2022/04/02 02:39:39;;;;;;;9.93;5.57;;;;;;;4.80;nan;101186.31;5018397;28;20421;-74
2022/04/02 02:42:04;;;;;;;5.30;4.80;;;;;;;4.65;nan;101191.75;5018037;28;20225;-72
2022/04/02 02:44:29;;;;;;;5.20;4.70;;;;;;;5.15;nan;101194.59;5017957;28;20182;-71
2022/04/02 02:46:55;;;;;;;5.10;4.60;;;;;;;4.60;nan;101193.25;5002107;28;20179;-72
2022/04/02 02:49:20;;;;;;;5.53;4.73;;;;;;;4.28;nan;101196.25;5018017;28;20178;-71
2022/04/02 02:51:45;;;;;;;4.93;4.43;;;;;;;4.59;nan;101194.06;5017435;28;20443;-71
2022/04/02 02:54:11;;;;;;;5.47;4.97;;;;;;;4.87;nan;101199.53;5018346;28;20235;-74
2022/04/02 02:56:36;;;;;;;5.57;5.00;;;;;;;4.55;nan;101200.81;5017974;28;20579;-74
2022/04/02 02:59:02;;;;;;;6.70;5.43;;;;;;;4.68;nan;101194.44;5018210;28;20373;-73
2022/04/02 03:01:27;;;;;;;6.50;4.90;;;;;;;4.33;nan;101205.06;5017930;28;20205;-74
2022/04/02 03:03:53;;;;;;;5.97;4.87;;;;;;;4.45;nan;101208.97;5017935;28;20422;-76
2022/04/02 03:06:18;;;;;;;5.10;4.70;;;;;;;3.99;nan;101205.31;5017835;28;20194;-74
2022/04/02 03:08:43;;;;;;;8.30;5.50;;;;;;;4.16;nan;101208.63;5018299;28;20434;-74
2022/04/02 03:11:09;;;;;;;5.80;5.10;;;;;;;4.66;nan;101203.84;5017717;28;20217;-75
2022/04/02 03:13:34;;;;;;;8.27;5.13;;;;;;;3.99;nan;101208.78;5017979;28;20175;-75
2022/04/02 03:16:02;;;;;;;5.80;5.10;;;;;;;4.39;nan;101201.88;5018710;28;20203;-73
2022/04/02 03:18:27;;;;;;;6.93;5.13;;;;;;;4.62;nan;101196.78;5018106;28;20179;-72
2022/04/02 03:20:52;;;;;;;5.63;5.00;;;;;;;4.57;nan;101203.47;5017701;28;20464;-72
2022/04/02 03:23:18;;;;;;;5.10;4.60;;;;;;;3.98;nan;101201.84;5018147;28;20175;-72
2022/04/02 03:25:43;;;;;;;5.57;5.00;;;;;;;4.19;nan;101204.50;5017682;28;20495;-77
2022/04/02 03:28:08;;;;;;;8.37;5.40;;;;;;;4.43;nan;101201.19;5017677;28;20206;-76
2022/04/02 03:30:34;;;;;;;5.63;5.07;;;;;;;4.19;nan;101212.25;5018073;28;20198;-78
2022/04/02 03:32:59;;;;;;;7.63;5.47;;;;;;;4.26;nan;101208.19;5019654;28;20182;-76
2022/04/02 03:35:25;;;;;;;5.70;5.03;;;;;;;4.22;nan;101211.47;5017717;28;20189;-75
2022/04/02 03:37:52;;;;;;;7.70;5.33;;;;;;;9.81;nan;101181.50;5018037;28;20175;-67
2022/04/02 03:40:21;;;;;;;6.00;5.40;;;;;;;10.15;nan;101181.22;5017523;28;20261;-67
2022/04/02 03:42:48;;;;;;;5.90;4.70;;;;;;;9.33;nan;101184.81;5020389;28;20553;-72
2022/04/02 03:45:15;;;;;;;5.37;4.87;;;;;;;6.38;nan;101206.84;5017046;28;20429;-71
2022/04/02 03:47:40;;;;;;;6.53;4.97;;;;;;;5.92;nan;101207.81;5017322;28;20448;-72
2022/04/02 03:50:06;;;;;;;5.50;4.80;;;;;;;4.99;nan;101204.34;5017344;28;20441;-72
2022/04/02 03:52:32;;;;;;;6.60;4.60;;;;;;;4.22;nan;101220.09;5017619;28;20202;-72
2022/04/02 03:54:58;;;;;;;5.30;4.73;;;;;;;4.30;nan;101222.13;5016700;28;20422;-71
2022/04/02 03:57:23;;;;;;;6.20;4.57;;;;;;;4.51;nan;101219.56;5017458;28;20175;-72
2022/04/02 03:59:48;;;;;;;9.63;5.37;;;;;;;4.47;nan;101226.31;5017756;28;20488;-71
2022/04/02 04:02:14;;;;;;;6.60;5.20;;;;;;;4.20;nan;101228.59;5017268;28;20206;-72
2022/04/02 04:04:40;;;;;;;8.23;5.07;;;;;;;4.17;nan;101228.47;5020223;28;20190;-73
2022/04/02 04:07:06;;;;;;;5.53;5.03;;;;;;;3.61;nan;101230.25;5021049;28;20445;-71
2022/04/02 04:09:32;;;;;;;5.43;4.10;;;;;;;3.71;nan;101230.75;5020862;28;20563;-71
2022/04/02 04:11:57;;;;;;;7.50;5.10;;;;;;;4.00;nan;101228.59;5020676;28;20449;-72
2022/04/02 04:14:26;;;;;;;6.10;4.73;;;;;;;3.56;nan;101236.91;5021069;28;20171;-72
2022/04/02 04:16:53;;;;;;;6.27;5.50;;;;;;;3.90;nan;101235.84;5020690;28;20448;-72
2022/04/02 04:19:19;;;;;;;4.90;4.50;;;;;;;3.44;nan;101240.69;5020682;28;20416;-72
2022/04/02 04:21:44;;;;;;;4.93;4.43;;;;;;;3.80;nan;101242.28;5028984;28;20965;-72
2022/04/02 04:24:10;;;;;;;7.93;5.10;;;;;;;3.75;nan;101241.19;5000332;28;20423;-71
2022/04/02 04:26:36;;;;;;;9.53;5.30;;;;;;;3.98;nan;101245.72;5014351;28;20206;-72
2022/04/02 04:29:01;;;;;;;5.47;4.70;;;;;;;3.74;nan;101248.06;5020582;28;20175;-71
2022/04/02 04:31:27;;;;;;;6.10;4.90;;;;;;;3.97;nan;101243.94;5020149;28;20221;-72
2022/04/02 04:33:52;;;;;;;7.00;5.37;;;;;;;3.75;nan;101249.84;5019438;28;20320;-71
2022/04/02 04:36:18;;;;;;;5.87;5.27;;;;;;;3.87;nan;101260.69;5020842;28;20174;-71
2022/04/02 04:38:44;;;;;;;5.77;4.50;;;;;;;3.61;nan;101261.19;5020361;28;20178;-72
2022/04/02 04:41:10;;;;;;;7.93;5.20;;;;;;;3.87;nan;101267.56;5019814;28;20457;-73
2022/04/02 04:43:37;;;;;;;6.50;4.70;;;;;;;4.20;nan;101264.72;5020400;28;20406;-71
2022/04/02 04:46:03;;;;;;;5.83;5.00;;;;;;;3.74;nan;101268.69;5020092;28;20429;-70
2022/04/02 04:48:28;;;;;;;6.67;5.47;;;;;;;3.35;nan;101269.47;5020033;28;20422;-70
2022/04/02 04:50:54;;;;;;;5.30;4.77;;;;;;;3.76;nan;101267.09;5019821;28;20436;-72
2022/04/02 04:53:19;;;;;;;8.17;5.23;;;;;;;3.49;nan;101283.03;5020283;28;20190;-71
2022/04/02 04:55:44;;;;;;;7.50;5.20;;;;;;;3.83;nan;101273.38;5020062;28;20186;-71
2022/04/02 04:58:09;;;;;;;5.90;4.97;;;;;;;3.70;nan;101275.38;5020403;28;20186;-70
2022/04/02 05:00:35;;;;;;;6.80;5.17;;;;;;;3.44;nan;101283.63;5019644;28;20193;-71
2022/04/02 05:03:00;;;;;;;6.23;4.93;;;;;;;3.37;nan;101285.91;5019714;28;20249;-71
2022/04/02 05:05:27;;;;;;;5.50;5.00;;;;;;;4.22;nan;101281.13;5020123;28;20171;-71
2022/04/02 05:07:53;;;;;;;6.90;5.00;;;;;;;3.65;nan;101289.78;5019191;28;20182;-70
2022/04/02 05:10:18;;;;;;;8.03;5.10;;;;;;;4.02;nan;101290.59;5019587;28;20839;-70
2022/04/02 05:12:44;;;;;;;5.37;4.53;;;;;;;3.96;nan;101298.91;5019853;28;20167;-70
2022/04/02 05:15:09;;;;;;;5.50;5.00;;;;;;;3.82;nan;101302.56;5019459;28;20186;-71
2022/04/02 05:17:36;;;;;;;5.93;4.77;;;;;;;3.53;nan;101300.41;5019387;28;20509;-70
2022/04/02 05:20:07;;;;;;;5.30;4.80;;;;;;;4.00;nan;101295.66;5019729;28;20183;-71
2022/04/02 05:22:32;;;;;;;10.10;5.43;;;;;;;3.87;nan;101304.56;5019384;28;20886;-71
2022/04/02 05:24:58;;;;;;;5.10;4.60;;;;;;;3.84;nan;101304.41;5019443;28;20462;-71
2022/04/02 05:27:26;;;;;;;6.07;5.33;;;;;;;3.90;nan;101310.66;5019666;28;20217;-71
2022/04/02 05:29:52;;;;;;;4.47;3.97;;;;;;;3.42;nan;101318.75;5019493;28;20179;-71
2022/04/02 05:32:17;;;;;;;6.90;4.93;;;;;;;3.73;nan;101320.19;5019061;28;20471;-70
2022/04/02 05:34:42;;;;;;;8.07;4.80;;;;;;;3.69;nan;101308.84;5019245;28;20218;-71
2022/04/02 05:37:08;;;;;;;4.70;4.00;;;;;;;3.98;nan;101310.19;5019371;28;20221;-71
2022/04/02 05:39:33;;;;;;;5.13;4.57;;;;;;;3.75;nan;101323.72;5019303;28;20255;-71
2022/04/02 05:41:59;;;;;;;7.27;4.60;;;;;;;4.40;nan;101319.81;5019003;28;20210;-70
2022/04/02 05:44:24;;;;;;;4.77;4.27;;;;;;;4.15;nan;101320.41;5019337;28;20197;-71
2022/04/02 05:46:50;;;;;;;5.43;4.93;;;;;;;4.23;nan;101321.63;5019337;28;20194;-71
2022/04/02 05:49:16;;;;;;;5.00;4.50;;;;;;;4.16;nan;101328.19;5002744;28;20210;-73
2022/04/02 05:51:42;;;;;;;5.33;4.10;;;;;;;3.90;nan;101332.19;5018511;28;20481;-73
2022/04/02 05:54:07;;;;;;;5.93;4.10;;;;;;;3.91;nan;101330.47;5019074;28;20508;-70
2022/04/02 05:56:34;;;;;;;5.27;4.30;;;;;;;4.05;nan;101338.03;5018781;28;20444;-73
2022/04/02 05:58:59;;;;;;;5.00;4.50;;;;;;;4.83;nan;101347.50;5018794;28;20174;-72
2022/04/02 06:01:24;;;;;;;6.63;4.37;;;;;;;5.62;nan;101340.34;5033049;28;20458;-71
2022/04/02 06:03:50;;;;;;;4.70;4.20;;;;;;;6.18;nan;101335.63;5018518;28;20437;-72
2022/04/02 06:06:15;;;;;;;5.50;4.40;;;;;;;5.51;nan;101339.06;5025896;28;20269;-71
2022/04/02 06:08:40;;;;;;;6.50;4.40;;;;;;;6.10;nan;101341.34;5018717;28;20309;-71
2022/04/02 06:11:06;;;;;;;4.40;4.00;;;;;;;6.23;nan;101346.16;5018335;28;20215;-70
2022/04/02 06:13:32;;;;;;;4.70;4.20;;;;;;;6.70;nan;101343.53;5018181;28;20225;-71
2022/04/02 06:15:57;;;;;;;5.23;4.60;;;;;;;6.77;nan;101337.72;5018639;28;20197;-71
2022/04/02 06:18:23;;;;;;;4.30;3.80;;;;;;;6.99;nan;101339.34;5018471;28;20233;-71
2022/04/02 06:20:48;;;;;;;4.33;3.93;;;;;;;7.99;nan;101335.56;5018085;28;20436;-69
2022/04/02 06:23:14;;;;;;;4.93;3.83;;;;;;;7.95;nan;101344.97;5018679;28;20369;-70
2022/04/02 06:25:40;;;;;;;5.27;4.47;;;;;;;8.59;nan;101353.78;5017667;28;20183;-70
2022/04/02 06:28:05;;;;;;;5.83;3.80;;;;;;;9.14;nan;101348.28;5018188;28;20426;-70
2022/04/02 06:30:31;;;;;;;5.77;3.80;;;;;;;8.55;nan;101356.25;5018448;28;20540;-71
2022/04/02 06:32:56;;;;;;;4.23;3.83;;;;;;;8.42;nan;101360.19;5017751;28;20178;-70
2022/04/02 06:35:22;;;;;;;4.67;3.80;;;;;;;8.37;nan;101361.78;5017994;28;20444;-70
2022/04/02 06:37:48;;;;;;;4.37;3.97;;;;;;;8.91;nan;101363.28;5018377;28;20175;-71
2022/04/02 06:40:14;;;;;;;4.77;4.20;;;;;;;9.30;nan;101359.09;5018274;28;20402;-70
2022/04/02 06:42:39;;;;;;;4.47;4.07;;;;;;;9.92;nan;101361.41;5018273;28;20464;-71
2022/04/02 06:45:05;;;;;;;5.80;3.97;;;;;;;8.71;nan;101367.94;5018220;28;20179;-71
2022/04/02 06:47:31;;;;;;;4.40;4.00;;;;;;;8.80;nan;101373.41;5017232;28;20187;-71
2022/04/02 06:49:57;;;;;;;5.87;4.13;;;;;;;8.70;nan;101374.88;5017880;28;20182;-71
2022/04/02 06:52:23;;;;;;;5.17;4.07;;;;;;;9.22;nan;101371.88;5017534;28;20730;-70
2022/04/02 06:54:48;;;;;;;4.27;3.87;;;;;;;9.06;nan;101371.47;5017039;28;20411;-72
2022/04/02 06:57:20;;;;;;;5.40;4.30;;;;;;;9.71;nan;101373.06;5017715;28;20171;-72
2022/04/02 06:59:46;;;;;;;6.30;4.23;;;;;;;8.88;nan;101391.81;5017987;28;20261;-71
2022/04/02 07:02:11;;;;;;;4.60;4.20;;;;;;;8.47;nan;101381.13;5017414;28;20561;-70
2022/04/02 07:04:36;;;;;;;4.73;4.23;;;;;;;9.21;nan;101388.34;5017849;28;20213;-71
2022/04/02 07:07:02;;;;;;;4.00;3.60;;;;;;;7.86;nan;101396.59;5017969;28;20167;-69
2022/04/02 07:09:28;;;;;;;5.07;3.80;;;;;;;8.82;nan;101389.03;5017634;28;20167;-71
2022/04/02 07:11:53;;;;;;;4.30;3.93;;;;;;;8.30;nan;101399.69;5017457;28;20488;-71
2022/04/02 07:14:18;;;;;;;4.10;3.77;;;;;;;9.34;nan;101386.94;5017848;28;20497;-70
2022/04/02 07:16:44;;;;;;;4.47;4.07;;;;;;;10.11;nan;101379.19;5017558;28;20175;-71
2022/04/02 07:19:10;;;;;;;3.73;3.43;;;;;;;8.21;nan;101391.63;5016978;28;20186;-70
2022/04/02 07:21:35;;;;;;;4.27;3.87;;;;;;;9.09;nan;101397.59;5013905;28;20206;-69
2022/04/02 07:24:01;;;;;;;4.17;3.77;;;;;;;9.16;nan;101393.44;5026955;28;20392;-71
2022/04/02 07:26:30;;;;;;;4.20;3.70;;;;;;;9.61;nan;101390.19;5017484;28;20175;-70
2022/04/02 07:28:55;;;;;;;3.90;3.60;;;;;;;9.15;nan;101393.41;5016954;28;20425;-69
2022/04/02 07:31:21;;;;;;;3.63;3.33;;;;;;;9.90;nan;101399.53;5032294;28;20392;-70
2022/04/02 07:33:46;;;;;;;4.70;4.30;;;;;;;11.16;nan;101389.94;5017329;28;20301;-70
2022/04/02 07:36:37;;;;;;;4.17;3.87;;;;;;;9.95;nan;101400.53;5017351;28;20215;-71
2022/04/02 07:39:05;;;;;;;4.50;4.10;;;;;;;10.74;nan;101403.13;5006313;28;20458;-71
2022/04/02 07:42:07;;;;;;;4.70;4.20;;;;;;;10.05;nan;101409.44;5019986;28;20457;-77
2022/04/02 07:44:53;;;;;;;5.57;4.47;;;;;;;16.03;nan;101378.84;5020967;28;20412;-72
2022/04/02 07:47:27;;;;;;;3.73;3.43;;;;;;;11.31;nan;101389.34;5005423;28;20702;-72
2022/04/02 07:49:56;;;;;;;3.63;3.33;;;;;;;7.72;nan;101422.13;5015793;28;20415;-72
2022/04/02 07:52:23;;;;;;;4.10;3.70;;;;;;;9.40;nan;101413.09;5018907;28;20416;-74
2022/04/02 07:54:53;;;;;;;4.13;3.60;;;;;;;8.14;nan;101416.53;5017281;28;20462;-76
2022/04/02 07:57:18;;;;;;;3.67;3.37;;;;;;;8.58;nan;101411.78;5010553;28;20462;-75
2022/04/02 07:59:51;;;;;;;4.40;3.60;;;;;;;9.84;nan;101410.69;5025308;28;20407;-75
2022/04/02 08:05:00;;;;;;;3.87;3.57;;;;;;;10.78;nan;101407.53;5019255;28;20450;-74
2022/04/02 08:07:30;;;;;;;3.70;3.40;;;;;;;12.10;nan;101399.31;5031274;28;20400;-75
2022/04/02 08:09:56;;;;;;;3.47;3.27;;;;;;;9.21;nan;101416.94;5018864;28;20491;-77
2022/04/02 08:12:22;;;;;;;4.03;3.63;;;;;;;11.19;nan;101408.25;5018472;28;20426;-76
2022/04/02 08:14:50;;;;;;;3.40;3.10;;;;;;;11.23;nan;101421.41;5020472;28;20419;-76
2022/04/02 08:17:15;;;;;;;4.03;3.63;;;;;;;12.19;nan;101411.59;5020088;28;20436;-75
2022/04/02 08:19:41;;;;;;;3.23;3.00;;;;;;;11.98;nan;101413.06;5019367;28;20809;-75
2022/04/02 08:22:06;;;;;;;3.50;3.20;;;;;;;11.54;nan;101429.78;5004710;28;20210;-76
2022/04/02 08:24:32;;;;;;;6.90;5.30;;;;;;;12.59;nan;101425.22;5019010;28;20179;-76
2022/04/02 08:27:02;;;;;;;3.57;3.27;;;;;;;13.48;nan;101426.16;5020166;28;20257;-76
2022/04/02 08:29:35;;;;;;;4.60;3.70;;;;;;;12.83;nan;101419.41;5019237;28;20186;-74
2022/04/02 08:32:42;;;;;;;4.50;4.10;;;;;;;12.73;nan;101425.38;5021242;28;20441;-77
2022/04/02 08:35:10;;;;;;;3.33;3.07;;;;;;;13.16;nan;101430.22;5017793;28;20448;-76
2022/04/02 08:37:50;;;;;;;5.00;3.40;;;;;;;13.88;nan;101424.72;5018723;28;20412;-76
2022/04/02 08:40:37;;;;;;;3.10;2.90;;;;;;;14.81;nan;101411.22;5000602;28;20699;-75
2022/04/02 08:43:24;;;;;;;3.23;3.00;;;;;;;14.53;nan;101415.50;5015984;28;20419;-75
2022/04/02 08:46:20;;;;;;;3.40;3.10;;;;;;;13.77;nan;101424.66;5016004;28;20428;-76
2022/04/02 08:48:58;;;;;;;4.03;3.00;;;;;;;11.93;nan;101446.06;5019155;28;20400;-76
2022/04/02 08:51:42;;;;;;;3.20;3.00;;;;;;;12.21;nan;101441.28;5005941;28;20452;-76
2022/04/02 08:54:23;;;;;;;3.10;2.90;;;;;;;10.11;nan;101452.13;4999650;28;20411;-78
2022/04/02 08:56:55;;;;;;;3.30;3.10;;;;;;;9.62;nan;101443.16;5001080;28;20806;-76
2022/04/02 08:59:34;;;;;;;2.90;2.70;;;;;;;8.49;nan;101462.63;5000316;28;20423;-76
2022/04/02 09:02:29;;;;;;;7.70;3.07;;;;;;;7.53;nan;101462.16;5000489;28;20853;-74
2022/04/02 09:05:08;;;;;;;3.57;3.17;;;;;;;13.73;nan;101428.97;4999663;28;20426;-74
2022/04/02 09:08:08;;;;;;;3.37;3.10;;;;;;;12.85;nan;101443.81;5038004;28;20675;-75
2022/04/02 09:10:56;;;;;;;3.50;3.30;;;;;;;11.88;nan;101448.59;5038980;28;20399;-75
2022/04/02 09:13:43;;;;;;;3.60;3.30;;;;;;;13.22;nan;101448.56;5039889;28;20904;-75
2022/04/02 09:16:21;;;;;;;3.37;3.07;;;;;;;11.92;nan;101444.28;5039787;28;20387;-75
2022/04/02 09:19:09;;;;;;;4.50;3.07;;;;;;;13.74;nan;101443.84;5039021;28;20445;-77
2022/04/02 09:22:04;;;;;;;3.43;3.10;;;;;;;14.69;nan;101433.94;5038535;28;20477;-75
2022/04/02 09:24:57;;;;;;;3.70;3.40;;;;;;;11.18;nan;101456.13;5039435;28;20409;-75
2022/04/02 09:27:57;;;;;;;3.20;3.00;;;;;;;12.85;nan;101450.81;5039668;28;20419;-76
2022/04/02 09:30:41;;;;;;;3.53;3.23;;;;;;;12.27;nan;101450.09;5039514;28;20479;-77
2022/04/02 09:33:27;;;;;;;3.20;3.00;;;;;;;14.11;nan;101437.97;5038718;28;20457;-76
2022/04/02 09:36:21;;;;;;;3.40;3.10;;;;;;;13.69;nan;101458.66;5038829;28;20412;-78
2022/04/02 09:39:19;;;;;;;4.83;3.63;;;;;;;13.32;nan;101442.59;5039358;28;20421;-78
2022/04/02 09:41:56;;;;;;;3.30;3.10;;;;;;;13.95;nan;101448.38;5041154;28;20479;-78
2022/04/02 09:44:40;;;;;;;3.10;2.90;;;;;;;14.49;nan;101435.59;5038686;28;20417;-78
2022/04/02 09:47:26;;;;;;;7.77;3.47;;;;;;;15.35;nan;101433.22;5018614;28;20385;-77
2022/04/02 09:50:12;;;;;;;3.47;3.00;;;;;;;13.59;nan;101443.72;5019453;28;20425;-76
2022/04/02 09:52:44;;;;;;;3.37;3.10;;;;;;;13.04;nan;101444.91;5019719;28;20464;-79
2022/04/02 09:55:20;;;;;;;3.73;3.43;;;;;;;12.97;nan;101444.00;5020102;28;20428;-78
2022/04/02 09:58:22;;;;;;;3.50;3.20;;;;;;;10.97;nan;101447.00;5019208;28;20421;-77
2022/04/02 10:00:56;;;;;;;3.80;3.50;;;;;;;11.38;nan;101461.66;5017419;28;20417;-77
2022/04/02 10:03:32;;;;;;;3.73;3.40;;;;;;;10.21;nan;101461.03;5019437;28;20407;-78
2022/04/02 10:05:58;;;;;;;3.87;3.57;;;;;;;7.84;nan;101484.81;5018902;28;20384;-79
2022/04/02 10:09:05;;;;;;;3.87;3.57;;;;;;;7.89;nan;101469.41;5019918;28;20411;-77
2022/04/02 10:11:34;;;;;;;3.57;3.27;;;;;;;9.76;nan;101461.72;4999135;28;20591;-79
2022/04/02 10:14:01;;;;;;;3.70;3.40;;;;;;;13.26;nan;101442.50;5018919;28;20388;-78
2022/04/02 10:16:27;;;;;;;4.33;3.93;;;;;;;12.88;nan;101449.13;5019072;28;20687;-79
2022/04/02 10:18:54;;;;;;;4.30;3.90;;;;;;;11.70;nan;101438.72;5019339;28;20412;-79
2022/04/02 10:21:20;;;;;;;3.83;3.53;;;;;;;11.56;nan;101443.72;5018273;28;20522;-78
2022/04/02 10:24:04;;;;;;;3.90;3.60;;;;;;;14.98;nan;101423.53;5019307;28;20464;-76
2022/04/02 10:26:36;;;;;;;4.07;3.77;;;;;;;14.56;nan;101427.72;5002158;28;20495;-79
2022/04/02 10:29:11;;;;;;;3.70;3.40;;;;;;;12.26;nan;101443.09;5019370;28;20396;-78
2022/04/02 10:31:45;;;;;;;4.23;3.93;;;;;;;14.03;nan;101427.47;5019017;28;20641;-78
2022/04/02 10:34:20;;;;;;;4.13;3.83;;;;;;;14.99;nan;101433.16;5001892;28;20501;-79
2022/04/02 10:36:58;;;;;;;3.83;3.53;;;;;;;14.57;nan;101412.00;5018493;28;20759;-78
2022/04/02 10:39:24;;;;;;;7.50;3.73;;;;;;;13.20;nan;101430.25;5018212;28;20432;-78
2022/04/02 10:41:55;;;;;;;3.87;3.57;;;;;;;13.54;nan;101414.00;5017846;28;20465;-78
2022/04/02 10:44:20;;;;;;;3.57;3.37;;;;;;;12.33;nan;101425.75;5018828;28;20408;-74
2022/04/02 10:46:46;;;;;;;4.50;3.80;;;;;;;11.60;nan;101426.38;5019408;28;20453;-78
2022/04/02 10:49:17;;;;;;;4.23;3.93;;;;;;;11.25;nan;101430.13;5018160;28;20250;-76
2022/04/02 10:51:43;;;;;;;3.73;3.43;;;;;;;9.50;nan;101440.22;5017878;28;20441;-75
2022/04/02 10:54:12;;;;;;;4.30;4.00;;;;;;;10.27;nan;101439.47;5018773;28;20392;-75
2022/04/02 10:56:43;;;;;;;3.83;3.53;;;;;;;10.16;nan;101440.94;5018475;28;20389;-74
2022/04/02 10:59:09;;;;;;;3.60;3.30;;;;;;;10.00;nan;101442.31;5018520;28;20423;-75
2022/04/02 11:01:43;;;;;;;5.60;4.07;;;;;;;10.90;nan;101434.69;5018119;28;20536;-74
2022/04/02 11:04:52;;;;;;;3.80;3.50;;;;;;;11.41;nan;101439.13;5018122;28;20886;-75
2022/04/02 11:07:35;;;;;;;3.80;3.50;;;;;;;11.98;nan;101435.72;5034802;28;20399;-74
2022/04/02 11:10:00;;;;;;;4.10;3.70;;;;;;;11.08;nan;101440.28;5038325;28;20415;-75
2022/04/02 11:12:37;;;;;;;3.70;3.40;;;;;;;10.19;nan;101444.50;5039042;28;20429;-75
2022/04/02 11:15:12;;;;;;;3.50;3.23;;;;;;;7.91;nan;101466.03;5041819;28;20173;-75
2022/04/02 11:17:41;;;;;;;3.67;3.37;;;;;;;9.15;nan;101448.03;5041318;28;20578;-78
2022/04/02 11:20:14;;;;;;;3.50;3.20;;;;;;;9.65;nan;101450.16;5041347;28;20404;-78
2022/04/02 11:22:52;;;;;;;4.00;3.70;;;;;;;9.13;nan;101444.47;5041949;28;20467;-78
2022/04/02 11:25:31;;;;;;;3.50;3.30;;;;;;;9.46;nan;101433.19;5042007;28;20793;-76
2022/04/02 11:28:08;;;;;;;4.33;3.93;;;;;;;8.28;nan;101450.72;5041697;28;20392;-75
2022/04/02 11:30:35;;;;;;;4.63;4.23;;;;;;;9.93;nan;101439.56;5041540;28;20383;-77
2022/04/02 11:33:14;;;;;;;3.63;3.33;;;;;;;9.03;nan;101439.03;5041774;28;20419;-77
2022/04/02 11:35:44;;;;;;;3.90;3.60;;;;;;;8.53;nan;101441.09;5042154;28;20415;-77
2022/04/02 11:38:18;;;;;;;4.00;3.70;;;;;;;12.87;nan;101421.19;5042884;28;20399;-78
2022/04/02 11:40:52;;;;;;;4.20;3.80;;;;;;;10.21;nan;101426.28;5042819;28;20455;-80
2022/04/02 11:43:18;;;;;;;4.33;4.03;;;;;;;9.87;nan;101433.34;5041260;28;20383;-76
2022/04/02 11:45:46;;;;;;;4.30;3.83;;;;;;;10.86;nan;101427.66;5041543;28;20395;-76
2022/04/02 11:48:14;;;;;;;4.53;4.13;;;;;;;11.58;nan;101428.06;5041971;28;20406;-77
2022/04/02 11:50:43;;;;;;;4.23;3.87;;;;;;;11.92;nan;101420.78;5041826;28;20394;-79
2022/04/02 11:53:08;;;;;;;6.80;6.03;;;;;;;13.73;nan;101425.50;5036165;28;20421;-74
2022/04/02 11:55:36;;;;;;;4.50;3.87;;;;;;;12.01;nan;101434.00;5021358;28;20767;-76
2022/04/02 11:58:05;;;;;;;4.47;4.07;;;;;;;11.00;nan;101428.81;5021398;28;20213;-75
2022/04/02 12:00:33;;;;;;;5.40;4.13;;;;;;;10.61;nan;101438.47;5021493;28;20656;-74
2022/04/02 12:02:59;;;;;;;4.73;3.80;;;;;;;8.84;nan;101452.38;5021335;28;20491;-78
2022/04/02 12:05:39;;;;;;;5.57;3.87;;;;;;;8.93;nan;101452.63;5021466;28;20400;-78
2022/04/02 12:08:05;;;;;;;4.40;3.90;;;;;;;9.66;nan;101437.19;5021267;28;20181;-79